Strona główna
METAR-TAF:

METAR-TAF

Lotnisko :

Las Vegas, Nevada, Stany Zjednoczone

Port lotniczy Las Vegas-McCarran

Szerokość geograficzna: 36-04-44N, Długość geograficzna: 115-09-19W, wysokość: 663 m

Aktualna obserwacja pogody

Raport powstał 10 godziny i 32 minut temu, godzina 14:56 UTC
Wiatr 5 kt od południe
Temperatura 2°C
Wilgotność 29%
Ciśnienie 1019 hPa
Widzialność: 16.1 km
bezchmurnie

METAR: KLAS 201456Z 19005KT 10SM CLR 02/M14 A3008 RMK AO2 SLP192 T00171144 53022

czas: 17:28 (01:28 UTC)

Prognoza

Raport powstał 10 godziny i 19 minut temu, godzina 15:09 UTC
Prognoza ważna od 20 godzina 15 UTC do 21 godzina 18 UTC
Wiatr 8 kt od północno-północny zachód
Widzialność: 10 km
bezchmurnie
Od 20 godzina 2000 UTC
Wiatr 7 kt od wschodnio-północny wschód
Widzialność: 10 km
Mało chmury na wysokości 12000 ft
Od 21 godzina 0300 UTC
Wiatr 6 kt od południe
Widzialność: 10 km
Przerywane chmury na wysokości 25000 ft

TAF: KLAS 201509Z 2015/2118 34008KT P6SM SKC FM202000 07007KT P6SM FEW120 FM210300 19006KT P6SM BKN250

Obserwacja i prognoza pogody dla ponad 4000 lotnisk (raport METAR i TAF).

Dostępne stacje oznaczono żółtymi i czerwonymi punktami na mapie.

Najedź kursorem aby zobaczyć nazwę stacji.

Kliknij aby zobaczyć obserwacje i prognozy pogody.

Aby zmienić mapę: kliknij na zielony przycisk z czarnym krzyżykiem, aby powiększyć; na zielony przycisk z myślnikiem, aby pomniejszyć; na zielone strzałki, aby przejść do map sąsiednich.


METAR-TAF: